sensor_id;sensor_type;location;lat;lon;timestamp;P1;durP1;ratioP1;P2;durP2;ratioP2
32242;SDS011;18731;42.830;24.390;2023-02-28T04:01:08;32.97;;;20.38;;
32242;SDS011;18731;42.830;24.390;2023-02-28T04:03:40;37.63;;;21.55;;
32242;SDS011;18731;42.830;24.390;2023-02-28T04:06:07;37.58;;;21.80;;
32242;SDS011;18731;42.830;24.390;2023-02-28T04:08:38;43.00;;;21.80;;
32242;SDS011;18731;42.830;24.390;2023-02-28T04:11:06;42.45;;;21.63;;
32242;SDS011;18731;42.830;24.390;2023-02-28T04:14:08;34.00;;;19.90;;
32242;SDS011;18731;42.830;24.390;2023-02-28T04:16:36;36.63;;;21.30;;
32242;SDS011;18731;42.830;24.390;2023-02-28T04:19:04;33.90;;;21.02;;
32242;SDS011;18731;42.830;24.390;2023-02-28T04:23:59;34.58;;;20.45;;
32242;SDS011;18731;42.830;24.390;2023-02-28T04:26:28;35.85;;;21.80;;
32242;SDS011;18731;42.830;24.390;2023-02-28T04:28:55;32.83;;;19.88;;
32242;SDS011;18731;42.830;24.390;2023-02-28T04:31:22;37.30;;;19.42;;
32242;SDS011;18731;42.830;24.390;2023-02-28T04:33:47;40.92;;;19.30;;
32242;SDS011;18731;42.830;24.390;2023-02-28T04:36:13;48.55;;;21.50;;
32242;SDS011;18731;42.830;24.390;2023-02-28T04:38:39;36.08;;;19.65;;
32242;SDS011;18731;42.830;24.390;2023-02-28T04:41:05;33.05;;;19.10;;
32242;SDS011;18731;42.830;24.390;2023-02-28T04:43:31;39.35;;;20.50;;
32242;SDS011;18731;42.830;24.390;2023-02-28T04:45:58;34.38;;;19.23;;
32242;SDS011;18731;42.830;24.390;2023-02-28T04:48:30;34.10;;;19.73;;
32242;SDS011;18731;42.830;24.390;2023-02-28T04:51:17;37.63;;;19.88;;
32242;SDS011;18731;42.830;24.390;2023-02-28T04:53:44;34.13;;;19.73;;
32242;SDS011;18731;42.830;24.390;2023-02-28T04:56:15;39.85;;;20.92;;
32242;SDS011;18731;42.830;24.390;2023-02-28T04:58:42;43.58;;;21.17;;
32242;SDS011;18731;42.830;24.390;2023-02-28T05:01:18;35.03;;;21.33;;
32242;SDS011;18731;42.830;24.390;2023-02-28T05:03:53;33.07;;;19.27;;
32242;SDS011;18731;42.830;24.390;2023-02-28T05:06:20;37.67;;;19.30;;
32242;SDS011;18731;42.830;24.390;2023-02-28T05:08:47;32.80;;;18.63;;
32242;SDS011;18731;42.830;24.390;2023-02-28T05:13:52;32.75;;;17.40;;
32242;SDS011;18731;42.830;24.390;2023-02-28T05:16:19;30.10;;;18.63;;
32242;SDS011;18731;42.830;24.390;2023-02-28T05:18:45;33.13;;;18.73;;
32242;SDS011;18731;42.830;24.390;2023-02-28T05:21:21;33.03;;;18.88;;
32242;SDS011;18731;42.830;24.390;2023-02-28T05:23:49;33.53;;;19.08;;
32242;SDS011;18731;42.830;24.390;2023-02-28T05:26:15;34.08;;;19.27;;
32242;SDS011;18731;42.830;24.390;2023-02-28T05:28:40;34.78;;;20.48;;
32242;SDS011;18731;42.830;24.390;2023-02-28T05:31:07;40.60;;;20.85;;
32242;SDS011;18731;42.830;24.390;2023-02-28T05:33:35;37.75;;;20.25;;
32242;SDS011;18731;42.830;24.390;2023-02-28T05:36:01;38.88;;;19.98;;
32242;SDS011;18731;42.830;24.390;2023-02-28T05:38:27;35.28;;;19.58;;
32242;SDS011;18731;42.830;24.390;2023-02-28T05:40:52;34.78;;;19.60;;
32242;SDS011;18731;42.830;24.390;2023-02-28T05:43:18;40.05;;;20.90;;
32242;SDS011;18731;42.830;24.390;2023-02-28T05:45:44;44.00;;;21.42;;
32242;SDS011;18731;42.830;24.390;2023-02-28T05:48:10;54.20;;;24.65;;
32242;SDS011;18731;42.830;24.390;2023-02-28T05:50:36;49.20;;;24.88;;
32242;SDS011;18731;42.830;24.390;2023-02-28T05:53:01;49.55;;;25.02;;
32242;SDS011;18731;42.830;24.390;2023-02-28T05:55:27;53.30;;;27.77;;
32242;SDS011;18731;42.830;24.390;2023-02-28T05:57:53;53.67;;;28.38;;
32242;SDS011;18731;42.830;24.390;2023-02-28T06:00:19;50.38;;;26.17;;
32242;SDS011;18731;42.830;24.390;2023-02-28T06:02:45;50.88;;;25.10;;
32242;SDS011;18731;42.830;24.390;2023-02-28T06:05:14;44.85;;;22.95;;
32242;SDS011;18731;42.830;24.390;2023-02-28T06:07:41;48.95;;;22.92;;
32242;SDS011;18731;42.830;24.390;2023-02-28T06:10:07;56.30;;;26.30;;
32242;SDS011;18731;42.830;24.390;2023-02-28T06:12:34;81.13;;;33.10;;
32242;SDS011;18731;42.830;24.390;2023-02-28T06:14:59;115.25;;;44.40;;
32242;SDS011;18731;42.830;24.390;2023-02-28T06:17:25;72.40;;;30.15;;
32242;SDS011;18731;42.830;24.390;2023-02-28T06:19:50;51.88;;;25.10;;
32242;SDS011;18731;42.830;24.390;2023-02-28T06:22:16;47.58;;;24.35;;
32242;SDS011;18731;42.830;24.390;2023-02-28T06:24:42;51.63;;;24.02;;
32242;SDS011;18731;42.830;24.390;2023-02-28T06:27:07;49.53;;;23.38;;
32242;SDS011;18731;42.830;24.390;2023-02-28T06:29:34;49.05;;;22.90;;
32242;SDS011;18731;42.830;24.390;2023-02-28T06:32:00;38.35;;;19.77;;
32242;SDS011;18731;42.830;24.390;2023-02-28T06:34:26;41.00;;;19.90;;
32242;SDS011;18731;42.830;24.390;2023-02-28T06:36:53;37.53;;;18.75;;
32242;SDS011;18731;42.830;24.390;2023-02-28T06:39:18;39.60;;;19.98;;
32242;SDS011;18731;42.830;24.390;2023-02-28T06:41:44;44.53;;;18.92;;
32242;SDS011;18731;42.830;24.390;2023-02-28T06:44:13;39.58;;;18.48;;
32242;SDS011;18731;42.830;24.390;2023-02-28T06:46:40;33.85;;;15.82;;
32242;SDS011;18731;42.830;24.390;2023-02-28T06:49:07;33.47;;;16.83;;
32242;SDS011;18731;42.830;24.390;2023-02-28T06:51:34;29.27;;;14.98;;
32242;SDS011;18731;42.830;24.390;2023-02-28T06:54:01;36.08;;;16.58;;
32242;SDS011;18731;42.830;24.390;2023-02-28T06:56:27;35.45;;;16.95;;
32242;SDS011;18731;42.830;24.390;2023-02-28T06:58:52;35.22;;;17.10;;
32242;SDS011;18731;42.830;24.390;2023-02-28T07:01:18;37.20;;;18.75;;
32242;SDS011;18731;42.830;24.390;2023-02-28T07:03:45;38.72;;;18.73;;
32242;SDS011;18731;42.830;24.390;2023-02-28T07:06:11;45.75;;;19.13;;
32242;SDS011;18731;42.830;24.390;2023-02-28T07:08:37;39.50;;;16.88;;
32242;SDS011;18731;42.830;24.390;2023-02-28T07:11:03;45.60;;;18.30;;
32242;SDS011;18731;42.830;24.390;2023-02-28T07:13:29;65.70;;;19.75;;
32242;SDS011;18731;42.830;24.390;2023-02-28T07:15:59;51.60;;;20.75;;
32242;SDS011;18731;42.830;24.390;2023-02-28T07:18:26;37.50;;;19.35;;
32242;SDS011;18731;42.830;24.390;2023-02-28T07:20:52;43.47;;;16.17;;
32242;SDS011;18731;42.830;24.390;2023-02-28T07:23:18;54.40;;;19.38;;
32242;SDS011;18731;42.830;24.390;2023-02-28T07:25:44;34.72;;;16.30;;
32242;SDS011;18731;42.830;24.390;2023-02-28T07:28:10;36.88;;;16.05;;
32242;SDS011;18731;42.830;24.390;2023-02-28T07:30:37;34.22;;;16.30;;
32242;SDS011;18731;42.830;24.390;2023-02-28T07:33:02;36.17;;;14.35;;
32242;SDS011;18731;42.830;24.390;2023-02-28T07:35:29;27.73;;;13.23;;
32242;SDS011;18731;42.830;24.390;2023-02-28T07:37:57;25.75;;;12.95;;
32242;SDS011;18731;42.830;24.390;2023-02-28T07:40:23;30.73;;;12.75;;
32242;SDS011;18731;42.830;24.390;2023-02-28T07:42:50;24.42;;;11.65;;
32242;SDS011;18731;42.830;24.390;2023-02-28T07:45:15;28.20;;;12.40;;
32242;SDS011;18731;42.830;24.390;2023-02-28T07:47:41;26.35;;;12.82;;
32242;SDS011;18731;42.830;24.390;2023-02-28T07:50:08;29.63;;;13.52;;
32242;SDS011;18731;42.830;24.390;2023-02-28T07:52:36;33.55;;;13.63;;
32242;SDS011;18731;42.830;24.390;2023-02-28T07:55:03;31.45;;;13.27;;
32242;SDS011;18731;42.830;24.390;2023-02-28T07:57:30;26.83;;;12.73;;
32242;SDS011;18731;42.830;24.390;2023-02-28T07:59:56;29.20;;;13.23;;
32242;SDS011;18731;42.830;24.390;2023-02-28T08:02:21;29.20;;;13.65;;
32242;SDS011;18731;42.830;24.390;2023-02-28T08:04:47;27.13;;;14.63;;
32242;SDS011;18731;42.830;24.390;2023-02-28T08:07:14;34.13;;;13.70;;
32242;SDS011;18731;42.830;24.390;2023-02-28T08:09:41;32.70;;;14.68;;
32242;SDS011;18731;42.830;24.390;2023-02-28T08:12:07;28.85;;;14.32;;
32242;SDS011;18731;42.830;24.390;2023-02-28T08:14:33;28.45;;;14.70;;
32242;SDS011;18731;42.830;24.390;2023-02-28T08:16:59;29.10;;;14.73;;
32242;SDS011;18731;42.830;24.390;2023-02-28T08:19:25;28.00;;;15.00;;
32242;SDS011;18731;42.830;24.390;2023-02-28T08:21:51;27.63;;;15.70;;
32242;SDS011;18731;42.830;24.390;2023-02-28T08:24:17;35.30;;;14.50;;
32242;SDS011;18731;42.830;24.390;2023-02-28T08:26:43;27.48;;;13.45;;
32242;SDS011;18731;42.830;24.390;2023-02-28T08:29:08;42.78;;;15.13;;
32242;SDS011;18731;42.830;24.390;2023-02-28T08:31:34;31.20;;;13.75;;
32242;SDS011;18731;42.830;24.390;2023-02-28T08:34:04;29.33;;;14.98;;
32242;SDS011;18731;42.830;24.390;2023-02-28T08:36:37;32.90;;;15.48;;
32242;SDS011;18731;42.830;24.390;2023-02-28T08:39:04;27.10;;;14.77;;
32242;SDS011;18731;42.830;24.390;2023-02-28T08:41:30;31.88;;;15.30;;
32242;SDS011;18731;42.830;24.390;2023-02-28T08:43:56;28.63;;;14.27;;
32242;SDS011;18731;42.830;24.390;2023-02-28T08:46:22;30.10;;;13.88;;
32242;SDS011;18731;42.830;24.390;2023-02-28T08:48:50;21.60;;;12.45;;
32242;SDS011;18731;42.830;24.390;2023-02-28T08:51:18;30.95;;;13.10;;
32242;SDS011;18731;42.830;24.390;2023-02-28T08:53:51;32.38;;;13.43;;
32242;SDS011;18731;42.830;24.390;2023-02-28T08:56:17;24.55;;;12.15;;
32242;SDS011;18731;42.830;24.390;2023-02-28T08:58:43;27.70;;;12.20;;
32242;SDS011;18731;42.830;24.390;2023-02-28T09:01:20;25.02;;;11.60;;
32242;SDS011;18731;42.830;24.390;2023-02-28T09:03:52;20.05;;;11.10;;
32242;SDS011;18731;42.830;24.390;2023-02-28T09:06:19;27.05;;;11.20;;
32242;SDS011;18731;42.830;24.390;2023-02-28T09:08:46;21.73;;;10.82;;
32242;SDS011;18731;42.830;24.390;2023-02-28T09:11:12;23.17;;;10.80;;
32242;SDS011;18731;42.830;24.390;2023-02-28T09:13:38;20.75;;;10.48;;
32242;SDS011;18731;42.830;24.390;2023-02-28T09:16:06;27.75;;;12.38;;
32242;SDS011;18731;42.830;24.390;2023-02-28T09:18:34;21.10;;;11.35;;
32242;SDS011;18731;42.830;24.390;2023-02-28T09:21:06;25.25;;;11.68;;
32242;SDS011;18731;42.830;24.390;2023-02-28T09:23:33;19.25;;;11.40;;
32242;SDS011;18731;42.830;24.390;2023-02-28T09:25:58;22.23;;;11.25;;
32242;SDS011;18731;42.830;24.390;2023-02-28T09:28:24;20.27;;;11.68;;
32242;SDS011;18731;42.830;24.390;2023-02-28T09:30:50;20.67;;;11.20;;
32242;SDS011;18731;42.830;24.390;2023-02-28T09:33:19;17.00;;;9.32;;
32242;SDS011;18731;42.830;24.390;2023-02-28T09:35:46;19.90;;;10.00;;
32242;SDS011;18731;42.830;24.390;2023-02-28T09:38:12;16.45;;;9.85;;
32242;SDS011;18731;42.830;24.390;2023-02-28T09:41:01;23.02;;;11.20;;
32242;SDS011;18731;42.830;24.390;2023-02-28T09:43:32;17.63;;;9.85;;
32242;SDS011;18731;42.830;24.390;2023-02-28T09:46:11;20.05;;;9.88;;
32242;SDS011;18731;42.830;24.390;2023-02-28T09:48:48;20.63;;;10.20;;
32242;SDS011;18731;42.830;24.390;2023-02-28T09:52:01;25.70;;;10.43;;
32242;SDS011;18731;42.830;24.390;2023-02-28T09:54:04;17.60;;;10.73;;
32242;SDS011;18731;42.830;24.390;2023-02-28T09:56:38;24.42;;;9.70;;
32242;SDS011;18731;42.830;24.390;2023-02-28T10:04:42;24.10;;;9.88;;
32242;SDS011;18731;42.830;24.390;2023-02-28T10:09:53;17.17;;;9.55;;
32242;SDS011;18731;42.830;24.390;2023-02-28T10:12:23;17.52;;;9.98;;
32242;SDS011;18731;42.830;24.390;2023-02-28T10:14:51;17.77;;;9.68;;
32242;SDS011;18731;42.830;24.390;2023-02-28T10:17:21;17.10;;;9.82;;
32242;SDS011;18731;42.830;24.390;2023-02-28T10:26:11;20.92;;;9.48;;
32242;SDS011;18731;42.830;24.390;2023-02-28T10:28:38;14.70;;;8.43;;
32242;SDS011;18731;42.830;24.390;2023-02-28T10:31:05;13.65;;;7.88;;
32242;SDS011;18731;42.830;24.390;2023-02-28T10:33:37;17.23;;;7.78;;
32242;SDS011;18731;42.830;24.390;2023-02-28T10:36:03;20.38;;;8.25;;
32242;SDS011;18731;42.830;24.390;2023-02-28T10:38:35;17.67;;;8.20;;
32242;SDS011;18731;42.830;24.390;2023-02-28T10:41:15;15.27;;;7.45;;
32242;SDS011;18731;42.830;24.390;2023-02-28T10:43:42;15.93;;;7.45;;
32242;SDS011;18731;42.830;24.390;2023-02-28T10:48:50;19.77;;;9.10;;
32242;SDS011;18731;42.830;24.390;2023-02-28T10:51:27;13.70;;;7.57;;
32242;SDS011;18731;42.830;24.390;2023-02-28T10:54:02;12.90;;;7.68;;
32242;SDS011;18731;42.830;24.390;2023-02-28T10:56:29;13.50;;;7.20;;
32242;SDS011;18731;42.830;24.390;2023-02-28T11:03:57;12.07;;;6.70;;
32242;SDS011;18731;42.830;24.390;2023-02-28T11:06:25;12.75;;;7.25;;
32242;SDS011;18731;42.830;24.390;2023-02-28T11:08:56;11.50;;;6.53;;
32242;SDS011;18731;42.830;24.390;2023-02-28T11:11:44;12.68;;;6.15;;
32242;SDS011;18731;42.830;24.390;2023-02-28T11:14:17;9.95;;;6.35;;
32242;SDS011;18731;42.830;24.390;2023-02-28T11:16:51;12.07;;;6.88;;
32242;SDS011;18731;42.830;24.390;2023-02-28T11:19:28;12.10;;;6.88;;
32242;SDS011;18731;42.830;24.390;2023-02-28T11:22:01;10.77;;;6.35;;
32242;SDS011;18731;42.830;24.390;2023-02-28T11:24:33;19.63;;;6.50;;
32242;SDS011;18731;42.830;24.390;2023-02-28T11:27:02;11.07;;;5.78;;
32242;SDS011;18731;42.830;24.390;2023-02-28T11:29:29;16.02;;;6.40;;
32242;SDS011;18731;42.830;24.390;2023-02-28T11:34:31;10.15;;;5.40;;
32242;SDS011;18731;42.830;24.390;2023-02-28T11:36:57;12.57;;;5.85;;
32242;SDS011;18731;42.830;24.390;2023-02-28T11:39:25;14.15;;;5.45;;
32242;SDS011;18731;42.830;24.390;2023-02-28T11:42:01;10.85;;;5.43;;
32242;SDS011;18731;42.830;24.390;2023-02-28T11:50:07;11.63;;;5.53;;
32242;SDS011;18731;42.830;24.390;2023-02-28T11:55:19;11.80;;;5.60;;
32242;SDS011;18731;42.830;24.390;2023-02-28T11:58:07;11.88;;;6.15;;
32242;SDS011;18731;42.830;24.390;2023-02-28T12:26:53;8.35;;;4.32;;
32242;SDS011;18731;42.830;24.390;2023-02-28T12:29:30;9.35;;;4.22;;
32242;SDS011;18731;42.830;24.390;2023-02-28T12:32:06;5.72;;;4.00;;
32242;SDS011;18731;42.830;24.390;2023-02-28T12:34:42;6.72;;;4.35;;
32242;SDS011;18731;42.830;24.390;2023-02-28T12:37:36;8.13;;;4.40;;
32242;SDS011;18731;42.830;24.390;2023-02-28T12:40:19;7.90;;;4.63;;
32242;SDS011;18731;42.830;24.390;2023-02-28T12:42:55;11.25;;;4.72;;
32242;SDS011;18731;42.830;24.390;2023-02-28T12:45:31;9.90;;;4.40;;
32242;SDS011;18731;42.830;24.390;2023-02-28T12:48:10;10.48;;;4.90;;
32242;SDS011;18731;42.830;24.390;2023-02-28T12:50:59;8.88;;;4.40;;
32242;SDS011;18731;42.830;24.390;2023-02-28T13:05:14;10.90;;;4.57;;
32242;SDS011;18731;42.830;24.390;2023-02-28T13:08:01;9.20;;;4.32;;
32242;SDS011;18731;42.830;24.390;2023-02-28T13:10:45;6.05;;;4.35;;
32242;SDS011;18731;42.830;24.390;2023-02-28T13:13:19;6.80;;;4.25;;
32242;SDS011;18731;42.830;24.390;2023-02-28T13:18:31;10.43;;;4.95;;
32242;SDS011;18731;42.830;24.390;2023-02-28T13:21:01;7.72;;;4.53;;
32242;SDS011;18731;42.830;24.390;2023-02-28T13:26:17;14.02;;;5.68;;
32242;SDS011;18731;42.830;24.390;2023-02-28T13:31:20;7.45;;;4.82;;
32242;SDS011;18731;42.830;24.390;2023-02-28T13:44:10;10.38;;;5.47;;
32242;SDS011;18731;42.830;24.390;2023-02-28T14:03:26;11.75;;;5.25;;
32242;SDS011;18731;42.830;24.390;2023-02-28T14:06:30;50.20;;;21.73;;
32242;SDS011;18731;42.830;24.390;2023-02-28T14:09:02;27.23;;;12.45;;
32242;SDS011;18731;42.830;24.390;2023-02-28T14:11:41;23.85;;;10.30;;
32242;SDS011;18731;42.830;24.390;2023-02-28T14:14:09;16.65;;;8.20;;
32242;SDS011;18731;42.830;24.390;2023-02-28T14:16:52;18.35;;;7.32;;
32242;SDS011;18731;42.830;24.390;2023-02-28T14:19:22;10.30;;;5.65;;
32242;SDS011;18731;42.830;24.390;2023-02-28T14:27:47;10.88;;;5.38;;
32242;SDS011;18731;42.830;24.390;2023-02-28T14:41:14;9.93;;;4.85;;
32242;SDS011;18731;42.830;24.390;2023-02-28T14:43:58;8.30;;;4.85;;
32242;SDS011;18731;42.830;24.390;2023-02-28T14:46:28;11.95;;;4.10;;
32242;SDS011;18731;42.830;24.390;2023-02-28T14:49:05;6.20;;;3.65;;
32242;SDS011;18731;42.830;24.390;2023-02-28T14:51:32;6.95;;;4.45;;
32242;SDS011;18731;42.830;24.390;2023-02-28T14:53:59;5.03;;;3.85;;
32242;SDS011;18731;42.830;24.390;2023-02-28T14:56:33;10.32;;;3.78;;
32242;SDS011;18731;42.830;24.390;2023-02-28T14:59:01;5.97;;;3.75;;
32242;SDS011;18731;42.830;24.390;2023-02-28T15:01:28;11.65;;;5.40;;
32242;SDS011;18731;42.830;24.390;2023-02-28T15:04:03;10.52;;;4.90;;
32242;SDS011;18731;42.830;24.390;2023-02-28T15:06:31;8.95;;;4.22;;
32242;SDS011;18731;42.830;24.390;2023-02-28T15:09:14;8.95;;;4.15;;
32242;SDS011;18731;42.830;24.390;2023-02-28T15:11:41;5.35;;;4.00;;
32242;SDS011;18731;42.830;24.390;2023-02-28T15:14:18;6.25;;;3.67;;
32242;SDS011;18731;42.830;24.390;2023-02-28T15:16:48;7.47;;;3.90;;
32242;SDS011;18731;42.830;24.390;2023-02-28T15:19:36;6.38;;;3.20;;
32242;SDS011;18731;42.830;24.390;2023-02-28T15:22:16;6.55;;;3.28;;
32242;SDS011;18731;42.830;24.390;2023-02-28T15:24:47;9.32;;;3.03;;
32242;SDS011;18731;42.830;24.390;2023-02-28T15:27:16;4.93;;;3.25;;
32242;SDS011;18731;42.830;24.390;2023-02-28T15:29:57;4.90;;;2.83;;
32242;SDS011;18731;42.830;24.390;2023-02-28T15:32:31;6.55;;;2.80;;
32242;SDS011;18731;42.830;24.390;2023-02-28T15:37:54;6.47;;;3.45;;
32242;SDS011;18731;42.830;24.390;2023-02-28T15:40:30;6.20;;;3.17;;
32242;SDS011;18731;42.830;24.390;2023-02-28T15:43:36;5.13;;;3.28;;
32242;SDS011;18731;42.830;24.390;2023-02-28T15:46:07;6.05;;;3.00;;
32242;SDS011;18731;42.830;24.390;2023-02-28T15:48:36;7.20;;;3.95;;
32242;SDS011;18731;42.830;24.390;2023-02-28T15:51:12;8.27;;;3.13;;
32242;SDS011;18731;42.830;24.390;2023-02-28T15:53:58;6.38;;;2.40;;
32242;SDS011;18731;42.830;24.390;2023-02-28T15:56:27;8.55;;;2.40;;
32242;SDS011;18731;42.830;24.390;2023-02-28T15:59:03;7.45;;;2.10;;
32242;SDS011;18731;42.830;24.390;2023-02-28T16:01:34;2.88;;;2.38;;
32242;SDS011;18731;42.830;24.390;2023-02-28T16:04:03;4.75;;;2.78;;
32242;SDS011;18731;42.830;24.390;2023-02-28T16:06:32;3.80;;;2.42;;
32242;SDS011;18731;42.830;24.390;2023-02-28T16:09:00;6.85;;;2.47;;
32242;SDS011;18731;42.830;24.390;2023-02-28T16:11:26;3.97;;;2.40;;
32242;SDS011;18731;42.830;24.390;2023-02-28T16:13:52;7.95;;;2.97;;
32242;SDS011;18731;42.830;24.390;2023-02-28T16:16:22;5.30;;;2.10;;
32242;SDS011;18731;42.830;24.390;2023-02-28T16:18:51;6.60;;;2.70;;
32242;SDS011;18731;42.830;24.390;2023-02-28T16:21:17;6.57;;;2.88;;
32242;SDS011;18731;42.830;24.390;2023-02-28T16:23:43;4.68;;;2.65;;
32242;SDS011;18731;42.830;24.390;2023-02-28T16:26:12;8.55;;;3.15;;
32242;SDS011;18731;42.830;24.390;2023-02-28T16:28:44;8.25;;;3.38;;
32242;SDS011;18731;42.830;24.390;2023-02-28T16:31:10;5.38;;;3.30;;
32242;SDS011;18731;42.830;24.390;2023-02-28T16:33:41;6.03;;;3.58;;
32242;SDS011;18731;42.830;24.390;2023-02-28T16:36:12;6.70;;;3.90;;
32242;SDS011;18731;42.830;24.390;2023-02-28T16:38:39;11.25;;;4.38;;
32242;SDS011;18731;42.830;24.390;2023-02-28T16:41:05;8.13;;;4.63;;
32242;SDS011;18731;42.830;24.390;2023-02-28T16:43:31;8.40;;;5.35;;
32242;SDS011;18731;42.830;24.390;2023-02-28T16:45:57;13.02;;;5.70;;
32242;SDS011;18731;42.830;24.390;2023-02-28T16:48:23;8.45;;;5.25;;
32242;SDS011;18731;42.830;24.390;2023-02-28T16:50:50;8.65;;;5.30;;
32242;SDS011;18731;42.830;24.390;2023-02-28T16:53:16;7.50;;;4.60;;
32242;SDS011;18731;42.830;24.390;2023-02-28T16:55:42;8.00;;;4.28;;
32242;SDS011;18731;42.830;24.390;2023-02-28T16:58:10;10.63;;;4.32;;
32242;SDS011;18731;42.830;24.390;2023-02-28T17:00:39;6.30;;;4.07;;
32242;SDS011;18731;42.830;24.390;2023-02-28T17:03:08;9.15;;;4.20;;
32242;SDS011;18731;42.830;24.390;2023-02-28T17:05:44;7.70;;;3.88;;
32242;SDS011;18731;42.830;24.390;2023-02-28T17:08:11;8.02;;;3.53;;
32242;SDS011;18731;42.830;24.390;2023-02-28T17:10:36;7.03;;;4.03;;
32242;SDS011;18731;42.830;24.390;2023-02-28T17:13:02;9.85;;;4.30;;
32242;SDS011;18731;42.830;24.390;2023-02-28T17:15:27;7.75;;;4.05;;
32242;SDS011;18731;42.830;24.390;2023-02-28T17:17:53;12.75;;;4.50;;
32242;SDS011;18731;42.830;24.390;2023-02-28T17:20:20;7.45;;;4.60;;
32242;SDS011;18731;42.830;24.390;2023-02-28T17:22:51;8.30;;;5.03;;
32242;SDS011;18731;42.830;24.390;2023-02-28T17:25:17;11.10;;;6.25;;
32242;SDS011;18731;42.830;24.390;2023-02-28T17:27:43;13.40;;;5.78;;
32242;SDS011;18731;42.830;24.390;2023-02-28T17:30:16;10.88;;;6.47;;
32242;SDS011;18731;42.830;24.390;2023-02-28T17:32:47;9.00;;;6.35;;
32242;SDS011;18731;42.830;24.390;2023-02-28T17:35:13;10.32;;;6.72;;
32242;SDS011;18731;42.830;24.390;2023-02-28T17:37:39;10.68;;;7.20;;
32242;SDS011;18731;42.830;24.390;2023-02-28T17:40:05;13.88;;;7.72;;
32242;SDS011;18731;42.830;24.390;2023-02-28T17:42:37;13.15;;;7.97;;
32242;SDS011;18731;42.830;24.390;2023-02-28T17:45:02;14.68;;;7.38;;
32242;SDS011;18731;42.830;24.390;2023-02-28T17:47:28;14.00;;;8.95;;
32242;SDS011;18731;42.830;24.390;2023-02-28T17:49:54;10.98;;;7.45;;
32242;SDS011;18731;42.830;24.390;2023-02-28T17:52:19;12.68;;;7.28;;
32242;SDS011;18731;42.830;24.390;2023-02-28T17:54:47;16.02;;;8.40;;
32242;SDS011;18731;42.830;24.390;2023-02-28T17:57:14;13.48;;;7.65;;
32242;SDS011;18731;42.830;24.390;2023-02-28T17:59:41;15.90;;;8.40;;
32242;SDS011;18731;42.830;24.390;2023-02-28T18:02:08;10.38;;;6.97;;
32242;SDS011;18731;42.830;24.390;2023-02-28T18:04:36;9.60;;;6.28;;
32242;SDS011;18731;42.830;24.390;2023-02-28T18:07:01;11.48;;;5.90;;
32242;SDS011;18731;42.830;24.390;2023-02-28T18:09:27;8.13;;;5.75;;
32242;SDS011;18731;42.830;24.390;2023-02-28T18:11:54;10.15;;;6.35;;
32242;SDS011;18731;42.830;24.390;2023-02-28T18:14:21;9.98;;;6.50;;
32242;SDS011;18731;42.830;24.390;2023-02-28T18:16:49;9.38;;;6.35;;
32242;SDS011;18731;42.830;24.390;2023-02-28T18:19:15;13.57;;;6.55;;
32242;SDS011;18731;42.830;24.390;2023-02-28T18:21:45;11.68;;;7.55;;
32242;SDS011;18731;42.830;24.390;2023-02-28T18:24:16;9.90;;;7.10;;
32242;SDS011;18731;42.830;24.390;2023-02-28T18:26:43;12.57;;;7.53;;
32242;SDS011;18731;42.830;24.390;2023-02-28T18:29:14;9.90;;;6.85;;
32242;SDS011;18731;42.830;24.390;2023-02-28T18:31:42;14.23;;;8.02;;
32242;SDS011;18731;42.830;24.390;2023-02-28T18:34:08;10.15;;;6.80;;
32242;SDS011;18731;42.830;24.390;2023-02-28T18:36:33;10.32;;;6.03;;
32242;SDS011;18731;42.830;24.390;2023-02-28T18:38:59;8.95;;;6.22;;
32242;SDS011;18731;42.830;24.390;2023-02-28T18:41:24;9.10;;;6.05;;
32242;SDS011;18731;42.830;24.390;2023-02-28T18:43:51;9.85;;;5.72;;
32242;SDS011;18731;42.830;24.390;2023-02-28T18:46:18;8.18;;;5.70;;
32242;SDS011;18731;42.830;24.390;2023-02-28T18:48:45;10.63;;;5.68;;
32242;SDS011;18731;42.830;24.390;2023-02-28T18:51:15;8.20;;;5.25;;
32242;SDS011;18731;42.830;24.390;2023-02-28T18:53:44;7.18;;;4.93;;
32242;SDS011;18731;42.830;24.390;2023-02-28T18:56:14;11.68;;;5.32;;
32242;SDS011;18731;42.830;24.390;2023-02-28T18:58:41;7.38;;;4.93;;
32242;SDS011;18731;42.830;24.390;2023-02-28T19:01:17;8.30;;;4.78;;
32242;SDS011;18731;42.830;24.390;2023-02-28T19:03:55;8.60;;;4.97;;
32242;SDS011;18731;42.830;24.390;2023-02-28T19:06:21;10.52;;;5.25;;
32242;SDS011;18731;42.830;24.390;2023-02-28T19:08:51;9.35;;;4.90;;
32242;SDS011;18731;42.830;24.390;2023-02-28T19:11:18;8.60;;;4.72;;
32242;SDS011;18731;42.830;24.390;2023-02-28T19:13:44;9.82;;;6.50;;
32242;SDS011;18731;42.830;24.390;2023-02-28T19:16:11;8.00;;;5.10;;
32242;SDS011;18731;42.830;24.390;2023-02-28T19:18:38;10.40;;;7.00;;
32242;SDS011;18731;42.830;24.390;2023-02-28T19:21:07;11.73;;;7.55;;
32242;SDS011;18731;42.830;24.390;2023-02-28T19:23:34;14.63;;;7.72;;
32242;SDS011;18731;42.830;24.390;2023-02-28T19:26:34;13.02;;;8.23;;
32242;SDS011;18731;42.830;24.390;2023-02-28T19:28:53;10.25;;;6.50;;
32242;SDS011;18731;42.830;24.390;2023-02-28T19:31:21;8.93;;;6.35;;
32242;SDS011;18731;42.830;24.390;2023-02-28T19:33:48;8.90;;;6.28;;
32242;SDS011;18731;42.830;24.390;2023-02-28T19:36:16;12.80;;;6.07;;
32242;SDS011;18731;42.830;24.390;2023-02-28T19:38:42;8.93;;;5.40;;
32242;SDS011;18731;42.830;24.390;2023-02-28T19:41:09;7.70;;;5.35;;
32242;SDS011;18731;42.830;24.390;2023-02-28T19:43:35;8.15;;;5.68;;
32242;SDS011;18731;42.830;24.390;2023-02-28T19:46:01;7.45;;;5.55;;
32242;SDS011;18731;42.830;24.390;2023-02-28T19:48:27;7.80;;;4.90;;
32242;SDS011;18731;42.830;24.390;2023-02-28T19:51:00;7.47;;;4.80;;
32242;SDS011;18731;42.830;24.390;2023-02-28T19:53:28;10.07;;;5.60;;
32242;SDS011;18731;42.830;24.390;2023-02-28T19:55:55;8.68;;;5.38;;
32242;SDS011;18731;42.830;24.390;2023-02-28T19:58:21;8.30;;;5.20;;
32242;SDS011;18731;42.830;24.390;2023-02-28T20:00:47;10.45;;;6.22;;
32242;SDS011;18731;42.830;24.390;2023-02-28T20:03:13;12.63;;;6.47;;
32242;SDS011;18731;42.830;24.390;2023-02-28T20:05:39;9.20;;;6.45;;
32242;SDS011;18731;42.830;24.390;2023-02-28T20:08:05;11.70;;;6.60;;
32242;SDS011;18731;42.830;24.390;2023-02-28T20:10:32;10.15;;;6.47;;
32242;SDS011;18731;42.830;24.390;2023-02-28T20:12:59;10.30;;;6.53;;
32242;SDS011;18731;42.830;24.390;2023-02-28T20:15:24;9.82;;;6.38;;
32242;SDS011;18731;42.830;24.390;2023-02-28T20:17:50;10.48;;;6.75;;
32242;SDS011;18731;42.830;24.390;2023-02-28T20:20:15;8.13;;;4.97;;
32242;SDS011;18731;42.830;24.390;2023-02-28T20:22:41;10.52;;;5.28;;
32242;SDS011;18731;42.830;24.390;2023-02-28T20:25:07;7.40;;;4.82;;
32242;SDS011;18731;42.830;24.390;2023-02-28T20:27:35;8.63;;;4.40;;
32242;SDS011;18731;42.830;24.390;2023-02-28T20:30:01;9.02;;;4.60;;
32242;SDS011;18731;42.830;24.390;2023-02-28T20:32:27;6.32;;;4.38;;
32242;SDS011;18731;42.830;24.390;2023-02-28T20:34:53;7.05;;;4.72;;
32242;SDS011;18731;42.830;24.390;2023-02-28T20:37:18;7.70;;;4.72;;
32242;SDS011;18731;42.830;24.390;2023-02-28T20:39:44;6.97;;;4.53;;
32242;SDS011;18731;42.830;24.390;2023-02-28T20:42:09;7.43;;;4.80;;
32242;SDS011;18731;42.830;24.390;2023-02-28T20:44:35;7.45;;;4.40;;